createdAt,value
2023-05-09T00:00:06.856Z,19.60
2023-05-09T00:02:34.658Z,19.50
2023-05-09T00:05:02.722Z,19.60
2023-05-09T00:07:30.134Z,19.50
2023-05-09T00:09:57.095Z,19.50
2023-05-09T00:12:24.088Z,19.50
2023-05-09T00:14:51.782Z,19.50
2023-05-09T00:17:18.830Z,19.50
2023-05-09T00:19:45.801Z,19.40
2023-05-09T00:22:12.968Z,19.50
2023-05-09T00:24:39.950Z,19.50
2023-05-09T00:27:06.928Z,19.50
2023-05-09T00:29:33.812Z,19.50
2023-05-09T00:32:01.028Z,19.50
2023-05-09T00:34:27.914Z,19.50
2023-05-09T00:36:54.786Z,19.50
2023-05-09T00:39:21.693Z,19.50
2023-05-09T00:41:48.650Z,19.40
2023-05-09T00:44:15.724Z,19.40
2023-05-09T00:46:43.221Z,19.40
2023-05-09T00:49:10.400Z,19.40
2023-05-09T00:51:39.260Z,19.40
2023-05-09T00:54:08.979Z,19.40
2023-05-09T00:56:36.600Z,19.30
2023-05-09T00:59:03.903Z,19.30
2023-05-09T01:01:31.132Z,19.20
2023-05-09T01:03:58.674Z,19.20
2023-05-09T01:06:44.584Z,19.20
2023-05-09T01:09:41.934Z,19.10
2023-05-09T01:12:24.040Z,19.10
2023-05-09T01:15:13.633Z,19.00
2023-05-09T01:17:53.854Z,19.00
2023-05-09T01:20:29.420Z,19.00
2023-05-09T01:23:22.896Z,19.00
2023-05-09T01:26:08.493Z,18.90
2023-05-09T01:28:47.779Z,18.90
2023-05-09T01:31:16.771Z,18.90
2023-05-09T01:33:47.822Z,18.90
2023-05-09T01:36:18.236Z,18.90
2023-05-09T01:38:48.681Z,18.80
2023-05-09T01:41:18.011Z,18.80
2023-05-09T01:43:47.441Z,18.80
2023-05-09T01:46:17.149Z,18.80
2023-05-09T01:48:45.568Z,18.80
2023-05-09T01:51:14.839Z,18.80
2023-05-09T01:53:43.434Z,18.80
2023-05-09T01:56:10.948Z,18.80
2023-05-09T01:58:40.213Z,18.80
2023-05-09T02:01:07.349Z,18.70
2023-05-09T02:03:37.829Z,18.70
2023-05-09T02:06:06.120Z,18.70
2023-05-09T02:08:34.049Z,18.70
2023-05-09T02:11:01.040Z,18.70
2023-05-09T02:13:28.144Z,18.70
2023-05-09T02:15:55.605Z,18.60
2023-05-09T02:18:22.826Z,18.60
2023-05-09T02:20:49.819Z,18.50
2023-05-09T02:23:18.359Z,18.50
2023-05-09T02:25:46.957Z,18.50
2023-05-09T02:28:14.276Z,18.50
2023-05-09T02:30:44.257Z,18.40
2023-05-09T02:33:13.857Z,18.40
2023-05-09T02:35:44.372Z,18.40
2023-05-09T02:38:14.306Z,18.40
2023-05-09T02:40:43.307Z,18.30
2023-05-09T02:43:10.712Z,18.30
2023-05-09T02:45:37.682Z,18.30
2023-05-09T02:48:07.606Z,18.30
2023-05-09T02:50:35.596Z,18.30
2023-05-09T02:53:02.492Z,18.30
2023-05-09T02:55:29.475Z,18.20
2023-05-09T02:58:09.354Z,18.20
2023-05-09T03:00:39.649Z,18.10
2023-05-09T03:03:07.468Z,18.10
2023-05-09T03:05:34.745Z,18.10
2023-05-09T03:08:01.702Z,18.10
2023-05-09T03:10:28.921Z,18.00
2023-05-09T03:12:55.928Z,18.00
2023-05-09T03:15:23.257Z,18.00
2023-05-09T03:17:50.511Z,17.90
2023-05-09T03:20:17.961Z,17.90
2023-05-09T03:22:44.879Z,17.90
2023-05-09T03:25:12.860Z,17.80
2023-05-09T03:27:40.119Z,17.80
2023-05-09T03:30:11.490Z,17.80
2023-05-09T03:32:39.918Z,17.70
2023-05-09T03:35:07.280Z,17.70
2023-05-09T03:37:34.386Z,17.60
2023-05-09T03:40:01.545Z,17.60
2023-05-09T03:42:31.741Z,17.50
2023-05-09T03:45:01.542Z,17.40
2023-05-09T03:47:29.373Z,17.40
2023-05-09T03:49:57.164Z,17.40
2023-05-09T03:52:24.449Z,17.30
2023-05-09T03:54:51.424Z,17.30
2023-05-09T03:57:18.565Z,17.30
2023-05-09T03:59:48.351Z,17.30
2023-05-09T04:02:17.355Z,17.30
2023-05-09T04:04:46.925Z,17.30
2023-05-09T04:07:14.233Z,17.20
2023-05-09T04:09:42.828Z,17.10
2023-05-09T04:12:09.822Z,17.20
2023-05-09T04:14:36.715Z,17.10
2023-05-09T04:17:04.095Z,17.10
2023-05-09T04:19:31.331Z,17.20
2023-05-09T04:21:58.562Z,17.20
2023-05-09T04:24:25.705Z,17.20
2023-05-09T04:26:52.694Z,17.20
2023-05-09T04:29:22.822Z,17.20
2023-05-09T04:31:54.221Z,17.20
2023-05-09T04:34:26.279Z,17.30
2023-05-09T04:36:54.598Z,17.30
2023-05-09T04:39:21.884Z,17.40
2023-05-09T04:42:01.230Z,17.40
2023-05-09T04:44:28.972Z,17.40
2023-05-09T04:46:56.200Z,17.40
2023-05-09T04:49:23.128Z,17.40
2023-05-09T04:51:51.417Z,17.40
2023-05-09T04:54:18.392Z,17.40
2023-05-09T04:56:47.899Z,17.40
2023-05-09T04:59:16.637Z,17.40
2023-05-09T05:01:44.702Z,17.40
2023-05-09T05:04:11.789Z,17.40
2023-05-09T05:06:38.731Z,17.40
2023-05-09T05:09:06.779Z,17.40
2023-05-09T05:11:33.717Z,17.40
2023-05-09T05:14:02.543Z,17.40
2023-05-09T05:16:29.621Z,17.40
2023-05-09T05:18:57.024Z,17.40
2023-05-09T05:21:24.467Z,17.50
2023-05-09T05:23:51.388Z,17.50
2023-05-09T05:26:18.316Z,17.50
2023-05-09T05:28:45.621Z,17.60
2023-05-09T05:31:14.324Z,17.60
2023-05-09T05:33:41.409Z,17.70
2023-05-09T05:36:08.603Z,17.70
2023-05-09T05:38:35.621Z,17.70
2023-05-09T05:41:02.621Z,17.80
2023-05-09T05:43:30.695Z,18.00
2023-05-09T05:45:57.686Z,18.10
2023-05-09T05:48:25.554Z,18.20
2023-05-09T05:50:53.791Z,18.30
2023-05-09T05:53:24.429Z,18.40
2023-05-09T05:55:51.900Z,18.40
2023-05-09T05:58:19.116Z,18.50
2023-05-09T06:00:46.593Z,18.50
2023-05-09T06:03:14.779Z,18.60
2023-05-09T06:05:52.486Z,18.70
2023-05-09T06:08:19.453Z,18.80
2023-05-09T06:10:46.356Z,18.70
2023-05-09T06:13:13.320Z,18.70
2023-05-09T06:15:44.888Z,18.70
2023-05-09T06:18:11.844Z,18.70
2023-05-09T06:20:38.866Z,18.70
2023-05-09T06:23:05.846Z,18.70
2023-05-09T06:25:32.700Z,18.80
2023-05-09T06:27:59.595Z,18.80
2023-05-09T06:30:27.231Z,18.80
2023-05-09T06:32:55.435Z,18.80
2023-05-09T06:35:22.604Z,18.80
2023-05-09T06:37:49.873Z,18.80
2023-05-09T06:40:17.286Z,18.80
2023-05-09T06:42:45.298Z,18.90
2023-05-09T06:45:12.638Z,19.00
2023-05-09T06:47:39.794Z,19.00
2023-05-09T06:50:07.454Z,19.10
2023-05-09T06:52:34.748Z,19.20
2023-05-09T06:55:01.917Z,19.30
2023-05-09T06:57:29.009Z,19.30
2023-05-09T06:59:56.020Z,19.40
2023-05-09T07:02:23.018Z,19.40
2023-05-09T07:04:50.125Z,19.40
2023-05-09T07:07:17.329Z,19.50
2023-05-09T07:09:44.237Z,19.50
2023-05-09T07:12:11.224Z,19.60
2023-05-09T07:14:38.599Z,19.60
2023-05-09T07:17:18.091Z,19.60
2023-05-09T07:19:49.473Z,19.60
2023-05-09T07:22:16.413Z,19.70
2023-05-09T07:24:44.578Z,19.70
2023-05-09T07:27:11.514Z,19.70
2023-05-09T07:29:38.546Z,19.70
2023-05-09T07:32:05.748Z,19.70
2023-05-09T07:34:32.768Z,19.80
2023-05-09T07:36:59.699Z,19.80
2023-05-09T07:39:26.679Z,19.90
2023-05-09T07:41:53.662Z,20.00
2023-05-09T07:44:20.578Z,20.10
2023-05-09T07:46:47.456Z,20.20
2023-05-09T07:49:14.692Z,20.30
2023-05-09T07:51:41.714Z,20.30
2023-05-09T07:54:10.045Z,20.40
2023-05-09T07:56:37.116Z,20.50
2023-05-09T07:59:04.071Z,20.60
2023-05-09T08:01:31.065Z,20.70
2023-05-09T08:03:58.105Z,20.80
2023-05-09T08:06:26.316Z,20.90
2023-05-09T08:08:53.284Z,21.00
2023-05-09T08:11:20.227Z,21.00
2023-05-09T08:13:48.173Z,21.10
2023-05-09T08:16:17.475Z,21.10
2023-05-09T08:18:44.873Z,21.10
2023-05-09T08:21:11.896Z,21.10
2023-05-09T08:23:38.892Z,21.10
2023-05-09T08:26:05.932Z,21.10
2023-05-09T08:28:32.904Z,21.10
2023-05-09T08:30:59.883Z,21.20
2023-05-09T08:33:27.068Z,21.20
2023-05-09T08:35:54.771Z,21.30
2023-05-09T08:38:22.382Z,21.30
2023-05-09T08:40:49.293Z,21.30
2023-05-09T08:43:19.852Z,21.40
2023-05-09T08:45:50.956Z,21.30
2023-05-09T08:48:18.686Z,21.40
2023-05-09T08:50:45.669Z,21.40
2023-05-09T08:53:13.878Z,21.50
2023-05-09T08:55:41.121Z,21.50
2023-05-09T08:58:09.700Z,21.60
2023-05-09T09:00:38.868Z,21.50
2023-05-09T09:03:07.588Z,21.60
2023-05-09T09:05:42.001Z,21.60
2023-05-09T09:08:11.096Z,21.70
2023-05-09T09:10:42.739Z,21.70
2023-05-09T09:13:12.617Z,21.80
2023-05-09T09:15:41.699Z,22.00
2023-05-09T09:18:11.780Z,22.10
2023-05-09T09:20:46.407Z,22.20
2023-05-09T09:23:19.481Z,22.40
2023-05-09T09:25:47.502Z,22.50
2023-05-09T09:28:14.799Z,22.50
2023-05-09T09:30:48.425Z,22.40
2023-05-09T09:33:22.697Z,22.40
2023-05-09T09:35:51.790Z,22.30
2023-05-09T09:38:20.277Z,22.30
2023-05-09T09:40:57.653Z,22.40
2023-05-09T09:43:29.183Z,22.40
2023-05-09T09:45:57.714Z,22.40
2023-05-09T09:48:32.317Z,22.50
2023-05-09T09:51:09.322Z,22.50
2023-05-09T09:53:41.434Z,22.60
2023-05-09T09:56:09.233Z,22.60
2023-05-09T09:58:36.791Z,22.60
2023-05-09T10:01:08.934Z,22.60
2023-05-09T10:03:37.521Z,22.70
2023-05-09T10:06:04.798Z,22.80
2023-05-09T10:08:31.798Z,22.90
2023-05-09T10:10:59.968Z,22.90
2023-05-09T10:13:28.244Z,22.90
2023-05-09T10:15:58.239Z,23.00
2023-05-09T10:18:29.429Z,23.10
2023-05-09T10:21:03.454Z,23.10
2023-05-09T10:23:32.772Z,23.20
2023-05-09T10:26:18.581Z,23.10
2023-05-09T10:28:48.049Z,23.10
2023-05-09T10:31:28.884Z,23.20
2023-05-09T10:33:56.323Z,23.20
2023-05-09T10:36:26.653Z,23.30
2023-05-09T10:38:55.323Z,23.60
2023-05-09T10:41:22.605Z,24.00
2023-05-09T10:43:49.777Z,24.00
2023-05-09T10:46:17.759Z,23.90
2023-05-09T10:48:45.634Z,24.00
2023-05-09T10:51:13.511Z,24.10
2023-05-09T10:53:45.447Z,24.30
2023-05-09T10:56:35.529Z,24.60
2023-05-09T10:59:02.796Z,24.80
2023-05-09T11:01:39.412Z,24.90
2023-05-09T11:04:15.078Z,25.00
2023-05-09T11:06:42.604Z,24.90
2023-05-09T11:09:33.226Z,24.80
2023-05-09T11:12:09.807Z,24.50
2023-05-09T11:14:46.908Z,24.40
2023-05-09T11:17:22.938Z,24.50
2023-05-09T11:19:50.338Z,24.60
2023-05-09T11:22:24.618Z,24.70
2023-05-09T11:24:59.318Z,24.60
2023-05-09T11:27:28.527Z,24.30
2023-05-09T11:29:57.504Z,24.20
2023-05-09T11:32:45.873Z,24.00
2023-05-09T11:35:16.009Z,24.00
2023-05-09T11:38:03.354Z,23.90
2023-05-09T11:40:31.230Z,23.90
2023-05-09T11:42:59.761Z,24.00
2023-05-09T11:45:32.008Z,24.10
2023-05-09T11:47:59.416Z,24.20
2023-05-09T11:50:26.568Z,24.60
2023-05-09T11:52:54.116Z,24.90
2023-05-09T11:55:30.488Z,25.00
2023-05-09T11:57:58.898Z,25.10
2023-05-09T12:00:26.618Z,25.10
2023-05-09T12:02:54.097Z,25.20
2023-05-09T12:05:22.893Z,25.50
2023-05-09T12:07:50.264Z,26.00
2023-05-09T12:10:20.608Z,26.30
2023-05-09T12:12:53.134Z,26.60
2023-05-09T12:15:21.817Z,26.90
2023-05-09T12:18:05.283Z,27.10
2023-05-09T12:20:47.595Z,27.30
2023-05-09T12:23:15.096Z,27.40
2023-05-09T12:26:08.190Z,27.30
2023-05-09T12:28:36.364Z,27.20
2023-05-09T12:31:04.163Z,27.10
2023-05-09T12:33:31.892Z,27.20
2023-05-09T12:36:07.551Z,27.20
2023-05-09T12:38:34.600Z,27.20
2023-05-09T12:41:18.800Z,27.20
2023-05-09T12:43:56.705Z,27.30
2023-05-09T12:46:24.167Z,27.00
2023-05-09T12:48:51.766Z,26.60
2023-05-09T12:51:22.546Z,26.30
2023-05-09T12:53:50.063Z,26.20
2023-05-09T12:56:18.728Z,26.00
2023-05-09T12:58:54.363Z,25.70
2023-05-09T13:01:27.991Z,25.50
2023-05-09T13:04:03.910Z,25.40
2023-05-09T13:06:31.161Z,25.20
2023-05-09T13:09:08.100Z,25.00
2023-05-09T13:11:37.702Z,24.90
2023-05-09T13:14:04.797Z,24.90
2023-05-09T13:16:31.884Z,25.00
2023-05-09T13:18:58.816Z,25.20
2023-05-09T13:21:25.963Z,25.20
2023-05-09T13:23:53.079Z,25.20
2023-05-09T13:26:21.147Z,25.10
2023-05-09T13:28:48.209Z,24.90
2023-05-09T13:31:15.646Z,24.60
2023-05-09T13:33:42.537Z,24.60
2023-05-09T13:36:09.647Z,24.70
2023-05-09T13:38:40.322Z,24.90
2023-05-09T13:41:07.727Z,25.00
2023-05-09T13:43:34.862Z,25.10
2023-05-09T13:46:02.113Z,25.00
2023-05-09T13:48:29.088Z,25.00
2023-05-09T13:50:57.684Z,25.00
2023-05-09T13:53:24.599Z,25.00
2023-05-09T13:55:51.486Z,25.10
2023-05-09T13:58:18.310Z,25.20
2023-05-09T14:00:45.627Z,25.20
2023-05-09T14:03:12.444Z,25.10
2023-05-09T14:05:39.361Z,25.00
2023-05-09T14:08:07.560Z,24.80
2023-05-09T14:10:34.568Z,24.60
2023-05-09T14:13:01.487Z,24.40
2023-05-09T14:15:29.747Z,24.40
2023-05-09T14:17:57.092Z,24.40
2023-05-09T14:20:24.148Z,24.40
2023-05-09T14:22:52.026Z,24.40
2023-05-09T14:25:19.059Z,24.50
2023-05-09T14:27:45.943Z,24.60
2023-05-09T14:30:13.558Z,24.80
2023-05-09T14:32:40.842Z,24.80
2023-05-09T14:35:08.371Z,24.90
2023-05-09T14:37:36.567Z,25.00
2023-05-09T14:40:05.916Z,25.00
2023-05-09T14:42:32.970Z,25.00
2023-05-09T14:45:00.021Z,25.00
2023-05-09T14:47:27.008Z,24.80
2023-05-09T14:49:54.078Z,24.70
2023-05-09T14:52:21.069Z,24.60
2023-05-09T14:54:47.997Z,24.40
2023-05-09T14:57:14.861Z,24.40
2023-05-09T14:59:42.524Z,24.40
2023-05-09T15:02:09.365Z,24.40
2023-05-09T15:04:36.279Z,24.50
2023-05-09T15:07:03.197Z,24.50
2023-05-09T15:09:30.173Z,24.40
2023-05-09T15:11:57.044Z,24.40
2023-05-09T15:14:24.033Z,24.40
2023-05-09T15:16:52.277Z,24.50
2023-05-09T15:19:19.441Z,24.50
2023-05-09T15:21:46.389Z,24.60
2023-05-09T15:24:13.340Z,24.60
2023-05-09T15:26:40.200Z,24.70
2023-05-09T15:29:07.197Z,24.60
2023-05-09T15:31:36.435Z,24.60
2023-05-09T15:34:03.595Z,24.60
2023-05-09T15:36:31.083Z,24.60
2023-05-09T15:38:58.092Z,24.70
2023-05-09T15:41:25.140Z,24.70
2023-05-09T15:43:52.773Z,24.70
2023-05-09T15:46:19.989Z,24.60
2023-05-09T15:48:47.275Z,24.60
2023-05-09T15:51:14.343Z,24.60
2023-05-09T15:53:41.422Z,24.50
2023-05-09T15:56:09.138Z,24.50
2023-05-09T15:58:36.826Z,24.40
2023-05-09T16:01:06.107Z,24.30
2023-05-09T16:03:33.521Z,24.30
2023-05-09T16:06:01.238Z,24.20
2023-05-09T16:08:28.261Z,24.20
2023-05-09T16:10:55.317Z,24.10
2023-05-09T16:13:22.804Z,24.10
2023-05-09T16:15:50.927Z,24.00
2023-05-09T16:18:18.795Z,23.90
2023-05-09T16:20:45.758Z,23.80
2023-05-09T16:23:13.207Z,23.80
2023-05-09T16:25:40.229Z,23.80
2023-05-09T16:28:08.307Z,23.80
2023-05-09T16:30:35.308Z,23.70
2023-05-09T16:33:02.287Z,23.60
2023-05-09T16:35:29.577Z,23.60
2023-05-09T16:37:56.871Z,23.50
2023-05-09T16:40:23.757Z,23.50
2023-05-09T16:42:50.670Z,23.40
2023-05-09T16:45:17.626Z,23.30
2023-05-09T16:47:44.646Z,23.20
2023-05-09T16:50:11.663Z,23.10
2023-05-09T16:52:38.581Z,23.00
2023-05-09T16:55:06.169Z,22.90
2023-05-09T16:57:33.644Z,22.80
2023-05-09T17:00:00.646Z,22.70
2023-05-09T17:02:27.752Z,22.60
2023-05-09T17:04:55.018Z,22.50
2023-05-09T17:07:22.276Z,22.40
2023-05-09T17:09:49.650Z,22.40
2023-05-09T17:12:18.355Z,22.30
2023-05-09T17:14:46.737Z,22.30
2023-05-09T17:17:14.792Z,22.20
2023-05-09T17:19:41.805Z,22.20
2023-05-09T17:22:09.191Z,22.20
2023-05-09T17:24:36.229Z,22.10
2023-05-09T17:27:04.661Z,22.10
2023-05-09T17:29:31.814Z,22.10
2023-05-09T17:32:01.949Z,22.00
2023-05-09T17:34:29.322Z,22.00
2023-05-09T17:36:56.439Z,21.90
2023-05-09T17:39:23.814Z,21.80
2023-05-09T17:41:50.755Z,21.80
2023-05-09T17:44:17.751Z,21.70
2023-05-09T17:46:44.716Z,21.70
2023-05-09T17:49:14.110Z,21.60
2023-05-09T17:51:41.484Z,21.50
2023-05-09T17:54:08.613Z,21.50
2023-05-09T17:56:35.645Z,21.40
2023-05-09T17:59:02.715Z,21.30
2023-05-09T18:01:29.755Z,21.30
2023-05-09T18:03:57.354Z,21.20
2023-05-09T18:06:24.370Z,21.20
2023-05-09T18:08:51.472Z,21.10
2023-05-09T18:11:18.420Z,21.10
2023-05-09T18:13:45.348Z,21.00
2023-05-09T18:16:12.359Z,20.90
2023-05-09T18:18:39.630Z,20.90
2023-05-09T18:21:08.012Z,20.90
2023-05-09T18:23:34.981Z,20.90
2023-05-09T18:26:02.021Z,20.80
2023-05-09T18:28:29.049Z,20.70
2023-05-09T18:30:58.446Z,20.70
2023-05-09T18:33:27.068Z,20.60
2023-05-09T18:35:54.871Z,20.60
2023-05-09T18:38:21.994Z,20.60
2023-05-09T18:40:49.715Z,20.50
2023-05-09T18:43:16.958Z,20.50
2023-05-09T18:45:45.038Z,20.40
2023-05-09T18:48:12.672Z,20.40
2023-05-09T18:50:40.750Z,20.40
2023-05-09T18:53:07.727Z,20.40
2023-05-09T18:55:34.655Z,20.30
2023-05-09T18:58:02.892Z,20.30
2023-05-09T19:00:29.829Z,20.30
2023-05-09T19:02:56.821Z,20.20
2023-05-09T19:05:23.737Z,20.20
2023-05-09T19:07:51.764Z,20.10
2023-05-09T19:10:18.886Z,20.10
2023-05-09T19:12:46.100Z,20.00
2023-05-09T19:15:13.048Z,20.00
2023-05-09T19:17:40.345Z,19.90
2023-05-09T19:20:08.415Z,19.90
2023-05-09T19:22:36.278Z,19.90
2023-05-09T19:25:03.293Z,19.80
2023-05-09T19:27:30.294Z,19.80
2023-05-09T19:29:57.178Z,19.80
2023-05-09T19:32:24.509Z,19.70
2023-05-09T19:34:51.757Z,19.70
2023-05-09T19:37:18.669Z,19.60
2023-05-09T19:39:45.645Z,19.60
2023-05-09T19:42:12.644Z,19.60
2023-05-09T19:44:40.443Z,19.50
2023-05-09T19:47:09.043Z,19.50
2023-05-09T19:49:35.927Z,19.50
2023-05-09T19:52:02.842Z,19.50
2023-05-09T19:54:30.405Z,19.40
2023-05-09T19:56:57.318Z,19.40
2023-05-09T19:59:24.205Z,19.40
2023-05-09T20:01:51.308Z,19.40
2023-05-09T20:04:21.699Z,19.40
2023-05-09T20:06:48.693Z,19.40
2023-05-09T20:09:20.791Z,19.40
2023-05-09T20:11:48.348Z,19.40
2023-05-09T20:14:15.286Z,19.30
2023-05-09T20:16:43.847Z,19.30
2023-05-09T20:19:14.491Z,19.30
2023-05-09T20:21:41.691Z,19.20
2023-05-09T20:24:09.022Z,19.20
2023-05-09T20:26:35.897Z,19.20
2023-05-09T20:29:02.751Z,19.10
2023-05-09T20:31:30.414Z,19.10
2023-05-09T20:33:58.266Z,19.00
2023-05-09T20:36:26.632Z,19.10
2023-05-09T20:38:53.592Z,19.00
2023-05-09T20:41:21.749Z,19.00
2023-05-09T20:43:48.565Z,19.00
2023-05-09T20:46:15.630Z,18.90
2023-05-09T20:48:42.699Z,18.90
2023-05-09T20:51:09.670Z,18.90
2023-05-09T20:53:38.140Z,18.90
2023-05-09T20:56:05.372Z,18.90
2023-05-09T20:58:34.359Z,18.90
2023-05-09T21:01:01.482Z,18.90
2023-05-09T21:03:28.471Z,18.90
2023-05-09T21:05:55.530Z,18.90
2023-05-09T21:08:22.951Z,18.90
2023-05-09T21:10:52.906Z,18.80
2023-05-09T21:13:19.877Z,18.90
2023-05-09T21:15:50.041Z,18.80
2023-05-09T21:18:17.436Z,18.80
2023-05-09T21:20:45.276Z,18.80
2023-05-09T21:23:12.426Z,18.80
2023-05-09T21:25:39.378Z,18.80
2023-05-09T21:28:06.269Z,18.80
2023-05-09T21:30:33.228Z,18.80
2023-05-09T21:33:00.222Z,18.70
2023-05-09T21:35:27.311Z,18.70
2023-05-09T21:37:54.315Z,18.70
2023-05-09T21:40:21.374Z,18.70
2023-05-09T21:42:48.296Z,18.70
2023-05-09T21:45:15.937Z,18.70
2023-05-09T21:47:42.876Z,18.70
2023-05-09T21:50:10.578Z,18.70
2023-05-09T21:52:37.626Z,18.70
2023-05-09T21:55:04.778Z,18.70
2023-05-09T21:57:31.640Z,18.70
2023-05-09T22:00:01.447Z,18.70
2023-05-09T22:02:29.115Z,18.70
2023-05-09T22:04:56.367Z,18.70
2023-05-09T22:07:23.244Z,18.60
2023-05-09T22:09:50.465Z,18.60
2023-05-09T22:12:17.363Z,18.60
2023-05-09T22:14:53.021Z,18.60
2023-05-09T22:17:24.425Z,18.60
2023-05-09T22:19:51.420Z,18.60
2023-05-09T22:22:18.486Z,18.60
2023-05-09T22:24:45.324Z,18.50
2023-05-09T22:27:12.486Z,18.50
2023-05-09T22:29:39.326Z,18.50
2023-05-09T22:32:08.237Z,18.40
2023-05-09T22:34:35.762Z,18.40
2023-05-09T22:37:02.824Z,18.30
2023-05-09T22:39:29.930Z,18.20
2023-05-09T22:41:56.863Z,18.20
2023-05-09T22:44:23.786Z,18.10
2023-05-09T22:46:50.837Z,18.00
2023-05-09T22:49:18.019Z,18.00
2023-05-09T22:51:45.155Z,17.90
2023-05-09T22:54:12.088Z,17.90
2023-05-09T22:56:39.081Z,17.90
2023-05-09T22:59:05.946Z,17.90
2023-05-09T23:01:33.270Z,17.80
2023-05-09T23:04:00.390Z,17.90
2023-05-09T23:06:27.363Z,17.80
2023-05-09T23:08:54.253Z,17.90
2023-05-09T23:11:23.982Z,17.90
2023-05-09T23:13:50.878Z,17.90
2023-05-09T23:16:17.887Z,17.90
2023-05-09T23:18:44.843Z,17.90
2023-05-09T23:21:11.841Z,17.90
2023-05-09T23:23:38.729Z,17.90
2023-05-09T23:26:05.936Z,17.90
2023-05-09T23:28:32.811Z,17.80
2023-05-09T23:30:59.690Z,17.80
2023-05-09T23:33:26.604Z,17.80
2023-05-09T23:35:54.085Z,17.80
2023-05-09T23:38:20.965Z,17.70
2023-05-09T23:40:47.898Z,17.70
2023-05-09T23:43:15.132Z,17.70
2023-05-09T23:45:42.652Z,17.60
2023-05-09T23:48:09.681Z,17.60
2023-05-09T23:50:36.635Z,17.50
2023-05-09T23:53:04.928Z,17.50
2023-05-09T23:55:32.059Z,17.50
2023-05-09T23:57:59.539Z,17.40
